createdAt,value
2019-05-20T00:00:00.229Z,2.00
2019-05-20T00:02:28.457Z,2.57
2019-05-20T00:04:55.385Z,1.90
2019-05-20T00:07:23.164Z,2.37
2019-05-20T00:09:50.708Z,2.10
2019-05-20T00:12:19.035Z,2.33
2019-05-20T00:14:46.572Z,2.60
2019-05-20T00:17:14.127Z,2.20
2019-05-20T00:19:41.673Z,2.63
2019-05-20T00:22:09.261Z,2.57
2019-05-20T00:24:36.793Z,1.63
2019-05-20T00:27:05.355Z,2.10
2019-05-20T00:29:33.688Z,2.27
2019-05-20T00:32:01.233Z,2.10
2019-05-20T00:34:35.151Z,1.70
2019-05-20T00:36:56.381Z,1.50
2019-05-20T00:39:23.940Z,1.93
2019-05-20T00:41:51.477Z,1.80
2019-05-20T00:44:19.036Z,1.80
2019-05-20T00:46:46.578Z,2.50
2019-05-20T00:49:15.124Z,2.10
2019-05-20T00:51:42.670Z,2.17
2019-05-20T00:54:10.997Z,2.00
2019-05-20T00:56:38.532Z,1.80
2019-05-20T00:59:06.199Z,1.70
2019-05-20T01:01:33.759Z,1.70
2019-05-20T01:04:01.330Z,1.63
2019-05-20T01:06:28.868Z,1.80
2019-05-20T01:08:56.435Z,2.43
2019-05-20T01:11:24.005Z,2.30
2019-05-20T01:13:51.576Z,2.37
2019-05-20T01:16:19.121Z,2.50
2019-05-20T01:18:46.675Z,2.47
2019-05-20T01:21:14.215Z,2.47
2019-05-20T01:23:41.771Z,1.93
2019-05-20T01:26:09.308Z,2.23
2019-05-20T01:28:36.877Z,2.60
2019-05-20T01:31:04.419Z,2.00
2019-05-20T01:33:31.952Z,2.70
2019-05-20T01:35:59.525Z,2.30
2019-05-20T01:38:27.084Z,2.00
2019-05-20T01:40:55.413Z,1.87
2019-05-20T01:43:22.989Z,2.23
2019-05-20T01:45:50.528Z,1.90
2019-05-20T01:48:18.122Z,1.77
2019-05-20T01:50:46.457Z,1.83
2019-05-20T01:53:14.020Z,2.13
2019-05-20T01:55:41.563Z,1.70
2019-05-20T01:58:09.099Z,1.93
2019-05-20T02:00:36.659Z,1.70
2019-05-20T02:03:04.204Z,2.13
2019-05-20T02:05:31.771Z,2.00
2019-05-20T02:07:59.341Z,1.93
2019-05-20T02:10:26.882Z,1.80
2019-05-20T02:12:54.449Z,1.80
2019-05-20T02:15:24.492Z,2.10
2019-05-20T02:17:52.032Z,2.27
2019-05-20T02:20:20.565Z,2.53
2019-05-20T02:22:48.870Z,2.63
2019-05-20T02:25:16.607Z,2.60
2019-05-20T02:27:44.138Z,2.40
2019-05-20T02:30:11.697Z,2.60
2019-05-20T02:32:39.266Z,2.73
2019-05-20T02:35:06.838Z,2.83
2019-05-20T02:37:35.147Z,3.07
2019-05-20T02:40:02.722Z,3.10
2019-05-20T02:42:30.261Z,3.20
2019-05-20T02:44:57.832Z,2.40
2019-05-20T02:47:25.376Z,2.63
2019-05-20T02:49:53.035Z,3.30
2019-05-20T02:52:20.573Z,3.30
2019-05-20T02:54:49.115Z,3.00
2019-05-20T02:57:16.667Z,2.90
2019-05-20T02:59:44.242Z,2.70
2019-05-20T03:02:11.796Z,2.53
2019-05-20T03:04:39.369Z,2.50
2019-05-20T03:07:07.695Z,3.27
2019-05-20T03:09:35.231Z,3.20
2019-05-20T03:12:02.792Z,4.00
2019-05-20T03:14:30.364Z,4.83
2019-05-20T03:16:57.923Z,6.10
2019-05-20T03:19:26.480Z,4.60
2019-05-20T03:21:54.048Z,5.10
2019-05-20T03:24:21.624Z,3.30
2019-05-20T03:26:49.164Z,3.57
2019-05-20T03:29:16.702Z,3.80
2019-05-20T03:31:44.373Z,3.43
2019-05-20T03:34:38.672Z,4.93
2019-05-20T03:36:39.521Z,4.80
2019-05-20T03:39:07.068Z,5.10
2019-05-20T03:41:35.654Z,4.07
2019-05-20T03:44:03.214Z,4.40
2019-05-20T03:46:30.783Z,4.10
2019-05-20T03:48:58.344Z,4.13
2019-05-20T03:51:26.661Z,4.13
2019-05-20T03:53:54.547Z,3.93
2019-05-20T03:56:22.116Z,4.40
2019-05-20T03:58:49.660Z,4.17
2019-05-20T04:01:17.255Z,5.27
2019-05-20T04:03:44.797Z,4.47
2019-05-20T04:06:12.368Z,4.13
2019-05-20T04:08:39.905Z,3.97
2019-05-20T04:11:07.447Z,3.63
2019-05-20T04:13:35.166Z,4.50
2019-05-20T04:16:02.631Z,4.13
2019-05-20T04:18:30.209Z,3.70
2019-05-20T04:20:57.751Z,3.70
2019-05-20T04:23:25.365Z,3.63
2019-05-20T04:25:52.941Z,4.10
2019-05-20T04:28:20.504Z,4.00
2019-05-20T04:30:48.812Z,4.23
2019-05-20T04:33:16.373Z,4.03
2019-05-20T04:35:43.933Z,3.80
2019-05-20T04:38:12.490Z,4.00
2019-05-20T04:40:40.028Z,3.60
2019-05-20T04:43:07.589Z,2.90
2019-05-20T04:45:35.128Z,3.10
2019-05-20T04:48:02.741Z,3.90
2019-05-20T04:50:30.291Z,3.83
2019-05-20T04:52:57.851Z,4.20
2019-05-20T04:55:25.389Z,3.40
2019-05-20T04:57:52.969Z,3.97
2019-05-20T05:03:25.464Z,3.80
2019-05-20T05:05:53.012Z,3.43
2019-05-20T05:08:20.580Z,2.53
2019-05-20T05:10:48.116Z,4.70
2019-05-20T05:13:15.793Z,2.50
2019-05-20T05:15:43.328Z,2.73
2019-05-20T05:18:10.889Z,2.90
2019-05-20T05:20:38.448Z,3.10
2019-05-20T05:23:06.988Z,2.73
2019-05-20T05:25:34.519Z,2.60
2019-05-20T05:28:02.081Z,2.83
2019-05-20T05:30:29.650Z,2.40
2019-05-20T05:32:57.179Z,4.43
2019-05-20T05:35:24.748Z,3.47
2019-05-20T05:37:52.624Z,2.17
2019-05-20T05:40:20.174Z,4.03
2019-05-20T05:42:47.744Z,3.63
2019-05-20T05:45:15.320Z,3.00
2019-05-20T05:47:42.875Z,3.83
2019-05-20T05:50:10.441Z,4.80
2019-05-20T05:52:38.772Z,5.27
2019-05-20T05:55:06.332Z,3.63
2019-05-20T05:57:33.867Z,3.40
2019-05-20T06:00:01.537Z,3.50
2019-05-20T06:02:29.095Z,4.10
2019-05-20T06:04:56.932Z,4.43
2019-05-20T06:07:24.515Z,5.00
2019-05-20T06:09:53.107Z,4.70
2019-05-20T06:12:20.640Z,4.93
2019-05-20T06:14:48.209Z,4.43
2019-05-20T06:17:15.741Z,4.70
2019-05-20T06:19:44.269Z,4.33
2019-05-20T06:22:14.511Z,4.03
2019-05-20T06:24:39.449Z,4.83
2019-05-20T06:27:06.987Z,5.50
2019-05-20T06:29:34.556Z,4.30
2019-05-20T06:32:02.320Z,4.30
2019-05-20T06:34:30.606Z,4.73
2019-05-20T06:37:00.664Z,3.50
2019-05-20T06:39:28.220Z,3.80
2019-05-20T06:41:55.756Z,3.10
2019-05-20T06:44:23.317Z,3.87
2019-05-20T06:46:50.857Z,3.63
2019-05-20T06:49:19.415Z,4.03
2019-05-20T06:51:46.961Z,3.63
2019-05-20T06:54:15.290Z,4.40
2019-05-20T06:56:43.376Z,3.77
2019-05-20T06:59:10.809Z,4.20
2019-05-20T07:01:38.379Z,5.47
2019-05-20T07:04:05.958Z,5.60
2019-05-20T07:06:45.321Z,4.00
2019-05-20T07:09:01.115Z,3.37
2019-05-20T07:11:28.748Z,2.63
2019-05-20T07:13:57.059Z,3.17
2019-05-20T07:16:24.620Z,2.30
2019-05-20T07:18:52.201Z,1.70
2019-05-20T07:21:19.786Z,2.13
2019-05-20T07:23:47.595Z,1.80
2019-05-20T07:26:15.169Z,2.30
2019-05-20T07:28:42.738Z,2.30
2019-05-20T07:31:10.296Z,2.57
2019-05-20T07:33:37.852Z,2.80
2019-05-20T07:36:05.426Z,2.67
2019-05-20T07:38:32.968Z,2.70
2019-05-20T07:41:00.530Z,3.47
2019-05-20T07:43:28.086Z,3.17
2019-05-20T07:45:55.670Z,3.65
2019-05-20T07:48:23.259Z,3.60
2019-05-20T07:50:50.809Z,5.53
2019-05-20T07:53:18.368Z,6.00
2019-05-20T07:55:51.643Z,4.50
2019-05-20T07:58:19.245Z,3.90
2019-05-20T08:00:46.797Z,4.17
2019-05-20T08:03:14.457Z,5.90
2019-05-20T08:05:42.016Z,6.93
2019-05-20T08:08:09.587Z,7.63
2019-05-20T08:10:37.161Z,6.27
2019-05-20T08:13:04.716Z,6.20
2019-05-20T08:15:32.288Z,6.10
2019-05-20T08:17:59.819Z,6.57
2019-05-20T08:20:27.383Z,6.90
2019-05-20T08:22:54.941Z,6.87
2019-05-20T08:25:22.500Z,8.07
2019-05-20T08:27:50.055Z,7.77
2019-05-20T08:30:17.611Z,9.03
2019-05-20T08:32:45.171Z,9.00
2019-05-20T08:35:12.713Z,7.90
2019-05-20T08:37:45.474Z,9.03
2019-05-20T08:40:07.873Z,8.47
2019-05-20T08:42:36.225Z,8.60
2019-05-20T08:45:06.519Z,8.20
2019-05-20T08:47:34.128Z,8.90
2019-05-20T08:50:03.642Z,7.90
2019-05-20T08:52:29.320Z,16.33
2019-05-20T08:54:56.876Z,9.40
2019-05-20T08:57:24.451Z,9.20
2019-05-20T08:59:52.038Z,9.87
2019-05-20T09:02:19.846Z,9.07
2019-05-20T09:04:47.417Z,8.90
2019-05-20T09:07:14.968Z,9.67
2019-05-20T09:09:42.553Z,9.33
2019-05-20T09:12:10.901Z,9.47
2019-05-20T09:14:40.489Z,9.33
2019-05-20T09:17:06.045Z,9.70
2019-05-20T09:19:33.624Z,10.57
2019-05-20T09:22:01.178Z,10.97
2019-05-20T09:24:28.911Z,11.60
2019-05-20T09:26:56.448Z,9.53
2019-05-20T09:29:24.023Z,12.57
2019-05-20T09:31:51.593Z,12.13
2019-05-20T09:34:19.166Z,13.80
2019-05-20T09:36:46.719Z,14.20
2019-05-20T09:39:14.284Z,13.80
2019-05-20T09:41:41.858Z,14.13
2019-05-20T09:44:09.448Z,13.87
2019-05-20T09:46:36.996Z,14.60
2019-05-20T09:49:04.575Z,14.40
2019-05-20T09:51:32.119Z,15.13
2019-05-20T09:53:59.714Z,15.50
2019-05-20T09:56:27.277Z,14.30
2019-05-20T09:58:55.611Z,15.10
2019-05-20T10:01:23.196Z,15.27
2019-05-20T10:03:51.031Z,15.87
2019-05-20T10:06:18.590Z,15.63
2019-05-20T10:08:46.238Z,16.63
2019-05-20T10:11:13.789Z,16.00
2019-05-20T10:13:41.375Z,17.97
2019-05-20T10:16:08.924Z,17.27
2019-05-20T10:18:38.638Z,17.83
2019-05-20T10:21:04.858Z,18.60
2019-05-20T10:23:32.579Z,17.87
2019-05-20T10:26:00.143Z,18.60
2019-05-20T10:28:27.704Z,18.77
2019-05-20T10:30:55.290Z,19.00
2019-05-20T10:33:22.832Z,17.80
2019-05-20T10:35:50.457Z,18.40
2019-05-20T10:38:18.014Z,19.80
2019-05-20T10:40:45.580Z,18.63
2019-05-20T10:43:13.170Z,19.30
2019-05-20T10:45:40.738Z,20.20
2019-05-20T10:48:09.151Z,19.13
2019-05-20T10:50:35.910Z,20.60
2019-05-20T10:53:03.472Z,21.10
2019-05-20T10:55:31.081Z,21.90
2019-05-20T10:57:59.417Z,20.53
2019-05-20T11:00:26.990Z,21.53
2019-05-20T11:02:54.544Z,20.50
2019-05-20T11:05:22.149Z,19.77
2019-05-20T11:07:50.498Z,18.70
2019-05-20T11:10:19.848Z,18.10
2019-05-20T11:12:47.409Z,18.57
2019-05-20T11:15:14.986Z,20.60
2019-05-20T11:17:42.532Z,20.57
2019-05-20T11:20:10.112Z,19.30
2019-05-20T11:22:38.669Z,19.60
2019-05-20T11:25:06.243Z,20.67
2019-05-20T11:27:33.788Z,17.77
2019-05-20T11:30:01.453Z,20.20
2019-05-20T11:32:29.003Z,18.83
2019-05-20T11:34:56.556Z,18.47
2019-05-20T11:37:24.124Z,19.30
2019-05-20T11:39:51.680Z,17.13
2019-05-20T11:42:19.243Z,17.63
2019-05-20T11:44:46.882Z,18.37
2019-05-20T11:47:14.415Z,18.90
2019-05-20T11:49:42.753Z,18.17
2019-05-20T11:52:10.296Z,17.90
2019-05-20T11:54:38.834Z,18.90
2019-05-20T11:57:06.384Z,19.70
2019-05-20T11:59:34.697Z,19.30
2019-05-20T12:02:04.021Z,18.97
2019-05-20T12:04:29.864Z,19.43
2019-05-20T12:06:57.433Z,19.63
2019-05-20T12:09:25.821Z,18.07
2019-05-20T12:11:53.359Z,18.20
2019-05-20T12:14:20.912Z,20.60
2019-05-20T12:16:48.483Z,18.83
2019-05-20T12:19:16.788Z,19.40
2019-05-20T12:21:44.367Z,20.70
2019-05-20T12:24:11.986Z,19.47
2019-05-20T12:26:39.540Z,21.13
2019-05-20T12:29:07.088Z,21.37
2019-05-20T12:31:34.660Z,23.20
2019-05-20T12:34:02.217Z,21.40
2019-05-20T12:36:29.767Z,22.53
2019-05-20T12:38:57.331Z,21.83
2019-05-20T12:41:25.334Z,28.43
2019-05-20T12:44:09.600Z,23.73
2019-05-20T12:46:20.440Z,23.40
2019-05-20T12:48:48.081Z,24.10
2019-05-20T12:51:15.628Z,22.33
2019-05-20T12:53:43.177Z,24.67
2019-05-20T12:56:10.759Z,24.13
2019-05-20T12:58:38.343Z,24.23
2019-05-20T13:01:05.961Z,23.90
2019-05-20T13:03:33.527Z,25.30
2019-05-20T13:06:01.072Z,26.43
2019-05-20T13:08:28.658Z,26.97
2019-05-20T13:10:56.291Z,25.57
2019-05-20T13:13:24.183Z,26.93
2019-05-20T13:15:51.747Z,24.77
2019-05-20T13:18:19.291Z,24.20
2019-05-20T13:20:46.867Z,25.37
2019-05-20T13:23:15.888Z,23.43
2019-05-20T13:25:42.066Z,26.97
2019-05-20T13:28:09.608Z,26.17
2019-05-20T13:30:37.162Z,27.10
2019-05-20T13:33:04.732Z,26.43
2019-05-20T13:35:32.276Z,27.73
2019-05-20T13:37:59.847Z,25.70
2019-05-20T13:40:42.972Z,24.20
2019-05-20T13:42:55.028Z,25.83
2019-05-20T13:45:22.580Z,24.63
2019-05-20T13:47:50.123Z,25.10
2019-05-20T13:50:18.480Z,25.80
2019-05-20T13:52:46.036Z,28.70
2019-05-20T13:55:13.623Z,27.70
2019-05-20T13:57:41.180Z,28.73
2019-05-20T14:00:08.778Z,28.43
2019-05-20T14:02:36.359Z,29.50
2019-05-20T14:05:03.920Z,30.40
2019-05-20T14:07:31.468Z,29.63
2019-05-20T14:09:59.037Z,32.43
2019-05-20T14:12:26.583Z,29.73
2019-05-20T14:14:54.160Z,29.77
2019-05-20T14:17:21.713Z,29.93
2019-05-20T14:19:49.289Z,32.00
2019-05-20T14:22:16.837Z,30.53
2019-05-20T14:24:44.420Z,34.10
2019-05-20T14:27:12.755Z,31.73
2019-05-20T14:29:40.353Z,32.00
2019-05-20T14:32:07.894Z,30.37
2019-05-20T14:34:35.461Z,32.30
2019-05-20T14:37:04.399Z,32.57
2019-05-20T14:39:31.974Z,33.23
2019-05-20T14:41:59.542Z,28.47
2019-05-20T14:44:27.083Z,25.53
2019-05-20T14:46:54.673Z,23.13
2019-05-20T14:49:23.003Z,22.80
2019-05-20T14:51:50.576Z,22.60
2019-05-20T14:54:18.127Z,22.33
2019-05-20T14:56:45.687Z,22.57
2019-05-20T14:59:13.248Z,22.70
2019-05-20T15:01:40.838Z,25.40
2019-05-20T15:04:09.152Z,26.33
2019-05-20T15:06:36.693Z,28.67
2019-05-20T15:09:04.275Z,28.20
2019-05-20T15:11:38.042Z,31.73
2019-05-20T15:14:00.712Z,33.23
2019-05-20T15:16:28.165Z,31.80
2019-05-20T15:18:55.760Z,30.10
2019-05-20T15:21:28.509Z,34.67
2019-05-20T15:23:51.071Z,33.87
2019-05-20T15:26:18.617Z,34.93
2019-05-20T15:28:47.176Z,38.00
2019-05-20T15:31:14.751Z,36.73
2019-05-20T15:33:42.323Z,41.43
2019-05-20T15:36:09.878Z,46.60
2019-05-20T15:38:37.455Z,39.70
2019-05-20T15:41:05.004Z,42.70
2019-05-20T15:43:32.572Z,43.73
2019-05-20T15:46:00.119Z,42.40
2019-05-20T15:48:27.707Z,41.67
2019-05-20T15:50:55.262Z,41.93
2019-05-20T15:53:22.832Z,42.07
2019-05-20T15:55:50.378Z,41.30
2019-05-20T15:58:18.993Z,45.67
2019-05-20T16:00:46.540Z,48.43
2019-05-20T16:03:15.124Z,47.00
2019-05-20T16:05:42.714Z,49.33
2019-05-20T16:08:10.289Z,43.50
2019-05-20T16:10:37.888Z,43.70
2019-05-20T16:13:05.459Z,46.37
2019-05-20T16:15:33.008Z,44.53
2019-05-20T16:18:00.584Z,48.00
2019-05-20T16:20:28.159Z,54.03
2019-05-20T16:22:55.724Z,60.07
2019-05-20T16:25:23.377Z,48.90
2019-05-20T16:27:51.036Z,48.50
2019-05-20T16:30:18.604Z,45.00
2019-05-20T16:32:46.168Z,47.57
2019-05-20T16:35:13.708Z,41.93
2019-05-20T16:37:41.277Z,39.87
2019-05-20T16:40:10.023Z,41.40
2019-05-20T16:42:38.205Z,36.27
2019-05-20T16:45:05.778Z,45.87
2019-05-20T16:47:33.317Z,40.50
2019-05-20T16:50:00.888Z,44.03
2019-05-20T16:52:28.428Z,36.10
2019-05-20T16:54:56.000Z,37.27
2019-05-20T16:57:23.872Z,38.17
2019-05-20T16:59:51.449Z,38.83
2019-05-20T17:02:18.991Z,35.60
2019-05-20T17:04:46.571Z,35.90
2019-05-20T17:07:14.112Z,35.40
2019-05-20T17:09:41.701Z,32.60
2019-05-20T17:12:09.252Z,33.10
2019-05-20T17:14:36.806Z,33.23
2019-05-20T17:17:04.378Z,33.90
2019-05-20T17:19:31.924Z,32.40
2019-05-20T17:22:00.504Z,37.43
2019-05-20T17:24:28.071Z,31.30
2019-05-20T17:26:55.613Z,30.60
2019-05-20T17:29:23.193Z,31.00
2019-05-20T17:31:50.773Z,30.67
2019-05-20T17:34:18.341Z,28.00
2019-05-20T17:36:45.928Z,29.30
2019-05-20T17:39:13.501Z,29.30
2019-05-20T17:41:41.071Z,30.73
2019-05-20T17:44:08.643Z,28.87
2019-05-20T17:46:36.958Z,28.00
2019-05-20T17:49:05.502Z,29.83
2019-05-20T17:51:33.069Z,28.97
2019-05-20T17:54:00.652Z,26.50
2019-05-20T17:56:28.200Z,26.40
2019-05-20T17:58:55.764Z,27.47
2019-05-20T18:01:23.343Z,28.07
2019-05-20T18:03:50.914Z,26.50
2019-05-20T18:06:18.463Z,25.40
2019-05-20T18:08:46.038Z,27.10
2019-05-20T18:11:13.624Z,27.90
2019-05-20T18:13:41.200Z,29.70
2019-05-20T18:16:08.743Z,27.80
2019-05-20T18:18:36.295Z,24.43
2019-05-20T18:21:03.868Z,23.90
2019-05-20T18:23:31.424Z,24.17
2019-05-20T18:25:59.007Z,23.33
2019-05-20T18:28:26.548Z,23.60
2019-05-20T18:30:54.116Z,25.13
2019-05-20T18:33:21.955Z,22.13
2019-05-20T18:35:49.523Z,22.27
2019-05-20T18:38:17.089Z,22.83
2019-05-20T18:40:44.674Z,20.70
2019-05-20T18:43:12.229Z,22.47
2019-05-20T18:45:39.808Z,23.10
2019-05-20T18:48:07.480Z,22.57
2019-05-20T18:50:35.047Z,22.53
2019-05-20T18:53:03.387Z,19.87
2019-05-20T18:55:34.310Z,22.90
2019-05-20T18:57:58.649Z,22.17
2019-05-20T19:00:26.191Z,21.30
2019-05-20T19:02:54.865Z,22.50
2019-05-20T19:05:22.429Z,21.03
2019-05-20T19:07:50.727Z,21.20
2019-05-20T19:10:18.283Z,22.40
2019-05-20T19:12:45.859Z,21.83
2019-05-20T19:15:13.743Z,21.20
2019-05-20T19:17:41.288Z,21.30
2019-05-20T19:20:08.869Z,21.47
2019-05-20T19:22:37.464Z,21.70
2019-05-20T19:25:06.730Z,20.73
2019-05-20T19:27:32.724Z,22.03
2019-05-20T19:30:00.302Z,21.80
2019-05-20T19:32:28.058Z,25.10
2019-05-20T19:34:55.624Z,24.70
2019-05-20T19:37:23.195Z,24.23
2019-05-20T19:39:50.798Z,17.20
2019-05-20T19:42:18.450Z,15.80
2019-05-20T19:44:46.028Z,15.43
2019-05-20T19:47:13.676Z,14.80
2019-05-20T19:49:42.720Z,16.63
2019-05-20T19:52:09.596Z,14.40
2019-05-20T19:54:37.140Z,13.30
2019-05-20T19:57:04.720Z,12.83
2019-05-20T19:59:33.029Z,14.20
2019-05-20T20:02:00.576Z,13.80
2019-05-20T20:04:28.135Z,14.43
2019-05-20T20:06:55.704Z,14.70
2019-05-20T20:09:24.260Z,14.17
2019-05-20T20:11:51.799Z,12.87
2019-05-20T20:14:20.315Z,15.00
2019-05-20T20:16:47.888Z,15.43
2019-05-20T20:19:15.456Z,29.87
2019-05-20T20:21:43.006Z,24.57
2019-05-20T20:24:10.573Z,15.50
2019-05-20T20:26:38.159Z,16.37
2019-05-20T20:29:05.699Z,16.17
2019-05-20T20:31:33.267Z,16.37
2019-05-20T20:34:00.808Z,21.23
2019-05-20T20:36:28.364Z,18.40
2019-05-20T20:38:55.933Z,21.50
2019-05-20T20:41:23.476Z,19.57
2019-05-20T20:43:51.046Z,18.97
2019-05-20T20:46:18.594Z,19.33
2019-05-20T20:48:46.160Z,23.33
2019-05-20T20:51:13.708Z,23.73
2019-05-20T20:53:41.266Z,19.33
2019-05-20T20:56:22.700Z,20.43
2019-05-20T20:58:37.192Z,19.13
2019-05-20T21:01:04.761Z,17.83
2019-05-20T21:03:32.328Z,19.23
2019-05-20T21:05:59.872Z,18.70
2019-05-20T21:08:27.440Z,18.43
2019-05-20T21:10:55.017Z,18.17
2019-05-20T21:13:22.586Z,16.97
2019-05-20T21:15:50.900Z,17.03
2019-05-20T21:18:18.471Z,17.87
2019-05-20T21:20:46.010Z,16.20
2019-05-20T21:23:13.574Z,20.17
2019-05-20T21:25:41.120Z,15.53
2019-05-20T21:28:08.691Z,15.60
2019-05-20T21:30:36.232Z,15.07
2019-05-20T21:33:09.177Z,15.13
2019-05-20T21:35:31.383Z,14.07
2019-05-20T21:37:58.947Z,14.30
2019-05-20T21:40:26.487Z,13.27
2019-05-20T21:42:54.034Z,13.67
2019-05-20T21:45:21.607Z,18.33
2019-05-20T21:47:49.160Z,17.10
2019-05-20T21:50:16.731Z,15.40
2019-05-20T21:52:44.286Z,14.10
2019-05-20T21:55:11.859Z,14.83
2019-05-20T21:57:39.877Z,12.50
2019-05-20T22:00:07.442Z,15.30
2019-05-20T22:02:35.014Z,18.30
2019-05-20T22:05:02.562Z,16.07
2019-05-20T22:07:31.390Z,13.93
2019-05-20T22:09:58.827Z,14.80
2019-05-20T22:12:26.395Z,13.47
2019-05-20T22:14:53.957Z,14.60
2019-05-20T22:17:21.516Z,14.30
2019-05-20T22:19:49.083Z,13.10
2019-05-20T22:22:18.256Z,12.23
2019-05-20T22:24:45.820Z,12.50
2019-05-20T22:27:13.364Z,13.97
2019-05-20T22:29:40.925Z,11.33
2019-05-20T22:32:11.377Z,14.53
2019-05-20T22:34:52.466Z,13.83
2019-05-20T22:37:12.837Z,13.40
2019-05-20T22:39:40.415Z,13.10
2019-05-20T22:42:07.955Z,14.10
2019-05-20T22:44:35.519Z,13.27
2019-05-20T22:47:03.055Z,10.97
2019-05-20T22:49:30.624Z,15.37
2019-05-20T22:51:58.166Z,15.57
2019-05-20T22:54:25.743Z,14.93
2019-05-20T22:56:54.081Z,21.53
2019-05-20T22:59:21.643Z,21.70
2019-05-20T23:01:49.189Z,19.30
2019-05-20T23:04:28.297Z,18.23
2019-05-20T23:06:55.872Z,19.30
2019-05-20T23:09:23.437Z,20.50
2019-05-20T23:11:50.979Z,20.67
2019-05-20T23:14:18.549Z,20.80
2019-05-20T23:16:46.103Z,20.00
2019-05-20T23:19:13.671Z,19.17
2019-05-20T23:21:41.233Z,17.60
2019-05-20T23:24:08.804Z,16.27
2019-05-20T23:26:36.349Z,17.13
2019-05-20T23:29:03.951Z,12.97
2019-05-20T23:31:31.495Z,15.40
2019-05-20T23:34:11.831Z,17.30
2019-05-20T23:36:26.667Z,11.43
2019-05-20T23:38:54.230Z,14.27
2019-05-20T23:41:21.832Z,10.70
2019-05-20T23:43:50.163Z,10.03
2019-05-20T23:46:17.709Z,9.43
2019-05-20T23:48:46.232Z,9.00
2019-05-20T23:51:13.803Z,8.80
2019-05-20T23:53:41.368Z,10.23
2019-05-20T23:56:08.918Z,26.23
2019-05-20T23:58:36.484Z,14.00
